Time;durP1;ratioP1;P1;durP2;ratioP2;P2;SDS_P1;SDS_P2;PMS_P1;PMS_P2;Temp;Humidity;BMP_temperature;BMP_pressure;BME280_temperature;BME280_humidity;BME280_pressure;Samples;Min_cycle;Max_cycle;Signal;HPM_P1;HPM_P2
2023/03/10 02:54:15;;;;;;;0.30;0.30;;;;;;;;;;7390963;19;20472;-87
2023/03/10 02:56:42;;;;;;;0.30;0.30;;;;;;;;;;7388260;19;20137;-84
2023/03/10 02:59:09;;;;;;;0.20;0.20;;;;;;;;;;7390555;19;20133;-85
2023/03/10 03:01:36;;;;;;;0.20;0.20;;;;;;;;;;7395082;19;20133;-84
2023/03/10 03:04:03;;;;;;;0.30;0.30;;;;;;;;;;7397851;19;20592;-87
2023/03/10 03:06:30;;;;;;;0.30;0.30;;;;;;;;;;7395176;19;20129;-84
2023/03/10 03:08:56;;;;;;;0.30;0.30;;;;;;;;;;7395258;19;20133;-84
2023/03/10 03:11:23;;;;;;;0.30;0.30;;;;;;;;;;7395706;19;20130;-84
2023/03/10 03:13:49;;;;;;;0.30;0.30;;;;;;;;;;7393571;19;20129;-86
2023/03/10 03:16:17;;;;;;;0.20;0.20;;;;;;;;;;7402059;19;20166;-88
2023/03/10 03:18:43;;;;;;;0.40;0.40;;;;;;;;;;7417258;19;20133;-87
2023/03/10 03:21:14;;;;;;;0.40;0.40;;;;;;;;;;7421379;19;20172;-88
2023/03/10 03:23:41;;;;;;;0.50;0.50;;;;;;;;;;7393937;19;20165;-85
2023/03/10 03:26:20;;;;;;;0.30;0.30;;;;;;;;;;7390773;19;20145;-84
2023/03/10 03:28:47;;;;;;;0.20;0.20;;;;;;;;;;7394227;19;20135;-84
2023/03/10 03:31:15;;;;;;;0.30;0.30;;;;;;;;;;7395000;19;20133;-87
2023/03/10 03:33:42;;;;;;;0.30;0.30;;;;;;;;;;7393530;19;20153;-86
2023/03/10 03:36:09;;;;;;;0.30;0.30;;;;;;;;;;7394965;19;20157;-86
2023/03/10 03:38:36;;;;;;;0.40;0.40;;;;;;;;;;7395343;19;20212;-86
2023/03/10 03:41:02;;;;;;;0.20;0.20;;;;;;;;;;7394647;19;20161;-86
2023/03/10 03:43:29;;;;;;;0.30;0.30;;;;;;;;;;7398114;19;20129;-85
2023/03/10 03:45:56;;;;;;;0.33;0.33;;;;;;;;;;7396245;19;20550;-86
2023/03/10 03:48:22;;;;;;;0.40;0.40;;;;;;;;;;7397527;19;20496;-86
2023/03/10 03:50:49;;;;;;;0.20;0.20;;;;;;;;;;7398285;19;20129;-88
2023/03/10 03:53:15;;;;;;;0.30;0.30;;;;;;;;;;7396225;19;20207;-88
2023/03/10 03:55:42;;;;;;;0.30;0.30;;;;;;;;;;7393900;19;20168;-86
2023/03/10 03:58:08;;;;;;;0.30;0.30;;;;;;;;;;7393369;19;20164;-88
2023/03/10 04:00:35;;;;;;;0.30;0.30;;;;;;;;;;7398033;19;20133;-86
2023/03/10 04:03:01;;;;;;;0.70;0.50;;;;;;;;;;7398122;19;20145;-85
2023/03/10 04:05:28;;;;;;;0.30;0.30;;;;;;;;;;7395859;19;20160;-85
2023/03/10 04:07:54;;;;;;;0.30;0.30;;;;;;;;;;7397649;19;20173;-85
2023/03/10 04:10:22;;;;;;;0.30;0.30;;;;;;;;;;7398075;19;20149;-88
2023/03/10 04:12:49;;;;;;;0.30;0.30;;;;;;;;;;7399215;19;20519;-83
2023/03/10 04:15:15;;;;;;;0.30;0.30;;;;;;;;;;7398788;19;20149;-87
2023/03/10 04:17:42;;;;;;;0.30;0.30;;;;;;;;;;7400125;19;20136;-84
2023/03/10 04:20:10;;;;;;;0.30;0.30;;;;;;;;;;7399852;19;20149;-85
2023/03/10 04:22:37;;;;;;;0.30;0.30;;;;;;;;;;7400393;19;20192;-84
2023/03/10 04:25:04;;;;;;;0.30;0.30;;;;;;;;;;7398628;19;20525;-85
2023/03/10 04:27:31;;;;;;;0.20;0.20;;;;;;;;;;7395075;19;20565;-85
2023/03/10 04:29:58;;;;;;;0.20;0.20;;;;;;;;;;7398339;19;20158;-86
2023/03/10 04:32:24;;;;;;;0.20;0.20;;;;;;;;;;7399513;19;20140;-84
2023/03/10 04:34:51;;;;;;;0.30;0.30;;;;;;;;;;7396064;19;20637;-86
2023/03/10 04:37:19;;;;;;;0.30;0.30;;;;;;;;;;7397200;19;20129;-86
2023/03/10 04:39:45;;;;;;;0.30;0.30;;;;;;;;;;7396405;19;20150;-84
2023/03/10 04:42:12;;;;;;;0.30;0.30;;;;;;;;;;7400093;19;20142;-84
2023/03/10 04:44:38;;;;;;;0.30;0.30;;;;;;;;;;7396598;19;20508;-85
2023/03/10 04:47:05;;;;;;;0.30;0.30;;;;;;;;;;7394610;19;20149;-84
2023/03/10 04:49:32;;;;;;;0.30;0.30;;;;;;;;;;7396943;19;20158;-84
2023/03/10 04:51:58;;;;;;;0.30;0.30;;;;;;;;;;7398773;19;20125;-84
2023/03/10 04:54:24;;;;;;;0.30;0.30;;;;;;;;;;7398640;19;20165;-86
2023/03/10 04:56:51;;;;;;;0.30;0.30;;;;;;;;;;7398852;19;20133;-85
2023/03/10 04:59:20;;;;;;;0.30;0.30;;;;;;;;;;7395890;19;20146;-85
2023/03/10 05:01:47;;;;;;;0.30;0.30;;;;;;;;;;7397131;19;20133;-84
2023/03/10 05:04:14;;;;;;;0.30;0.30;;;;;;;;;;7394186;19;20601;-84
2023/03/10 05:06:40;;;;;;;0.30;0.30;;;;;;;;;;7398893;19;20137;-85
2023/03/10 05:09:07;;;;;;;0.30;0.30;;;;;;;;;;7398845;19;20137;-85
2023/03/10 05:11:34;;;;;;;0.43;0.43;;;;;;;;;;7398993;19;20129;-84
2023/03/10 05:14:00;;;;;;;0.30;0.30;;;;;;;;;;7397268;19;20502;-84
2023/03/10 05:16:27;;;;;;;0.20;0.20;;;;;;;;;;7400480;19;20164;-83
2023/03/10 05:18:54;;;;;;;0.30;0.30;;;;;;;;;;7397509;19;20141;-86
2023/03/10 05:21:21;;;;;;;0.30;0.30;;;;;;;;;;7398356;19;20148;-85
2023/03/10 05:23:48;;;;;;;0.30;0.30;;;;;;;;;;7397039;19;20490;-84
2023/03/10 05:26:15;;;;;;;0.30;0.30;;;;;;;;;;7396237;19;20149;-85
2023/03/10 05:28:42;;;;;;;0.30;0.30;;;;;;;;;;7398186;19;20136;-84
2023/03/10 05:31:11;;;;;;;0.30;0.30;;;;;;;;;;7398384;19;20505;-84
2023/03/10 05:33:38;;;;;;;0.30;0.30;;;;;;;;;;7398852;19;20157;-85
2023/03/10 05:36:07;;;;;;;0.30;0.30;;;;;;;;;;7396395;19;20141;-85
2023/03/10 05:38:34;;;;;;;0.27;0.27;;;;;;;;;;7396221;19;20145;-85
2023/03/10 05:41:01;;;;;;;0.30;0.30;;;;;;;;;;7397507;19;20152;-86
2023/03/10 05:43:27;;;;;;;0.20;0.20;;;;;;;;;;7415607;19;20139;-90
2023/03/10 05:45:55;;;;;;;0.30;0.30;;;;;;;;;;7423339;19;20137;-90
2023/03/10 05:48:22;;;;;;;0.30;0.30;;;;;;;;;;7419813;19;20523;-85
2023/03/10 05:50:59;;;;;;;0.30;0.30;;;;;;;;;;7398886;19;20136;-86
2023/03/10 05:53:26;;;;;;;0.30;0.30;;;;;;;;;;7397179;19;20172;-84
2023/03/10 05:55:54;;;;;;;0.30;0.30;;;;;;;;;;7394000;19;20188;-85
2023/03/10 05:58:21;;;;;;;0.90;0.90;;;;;;;;;;7393698;19;20173;-86
2023/03/10 06:00:48;;;;;;;0.40;0.40;;;;;;;;;;7394553;19;20648;-84
2023/03/10 06:03:14;;;;;;;0.30;0.30;;;;;;;;;;7397861;19;20141;-84
2023/03/10 06:05:41;;;;;;;0.30;0.30;;;;;;;;;;7395299;19;20495;-84
2023/03/10 06:08:08;;;;;;;0.20;0.20;;;;;;;;;;7398506;19;20184;-84
2023/03/10 06:10:34;;;;;;;0.30;0.30;;;;;;;;;;7396787;19;20156;-85
2023/03/10 06:13:01;;;;;;;0.60;0.60;;;;;;;;;;7397288;19;20137;-84
2023/03/10 06:15:28;;;;;;;0.23;0.23;;;;;;;;;;7391129;19;20149;-85
2023/03/10 06:17:55;;;;;;;0.30;0.30;;;;;;;;;;7392072;19;20128;-86
2023/03/10 06:20:22;;;;;;;0.30;0.30;;;;;;;;;;7395298;19;20493;-85
2023/03/10 06:22:50;;;;;;;0.37;0.37;;;;;;;;;;7396052;19;20129;-87
2023/03/10 06:25:17;;;;;;;0.50;0.50;;;;;;;;;;7392166;19;20141;-85
2023/03/10 06:27:43;;;;;;;0.30;0.30;;;;;;;;;;7391804;19;20132;-85
2023/03/10 06:30:10;;;;;;;0.30;0.30;;;;;;;;;;7396366;19;20172;-84
2023/03/10 06:32:37;;;;;;;0.37;0.37;;;;;;;;;;7396103;19;20132;-85
2023/03/10 06:35:04;;;;;;;0.30;0.30;;;;;;;;;;7418514;19;20208;-88
2023/03/10 06:37:30;;;;;;;1.30;0.73;;;;;;;;;;7421269;19;20137;-90
2023/03/10 06:40:00;;;;;;;0.30;0.30;;;;;;;;;;7418077;19;20157;-88
2023/03/10 06:42:27;;;;;;;0.30;0.30;;;;;;;;;;7402868;19;20137;-88
2023/03/10 06:44:54;;;;;;;0.30;0.30;;;;;;;;;;7398350;19;20219;-86
2023/03/10 06:47:20;;;;;;;0.40;0.40;;;;;;;;;;7399228;19;20136;-86
2023/03/10 06:49:47;;;;;;;0.30;0.30;;;;;;;;;;7399032;19;20133;-87
2023/03/10 06:52:13;;;;;;;0.30;0.30;;;;;;;;;;7396537;19;20141;-87
2023/03/10 06:54:40;;;;;;;0.23;0.23;;;;;;;;;;7399439;19;20208;-86
2023/03/10 06:57:07;;;;;;;0.30;0.30;;;;;;;;;;7397400;19;20601;-86
2023/03/10 06:59:33;;;;;;;0.60;0.60;;;;;;;;;;7399032;19;20539;-85
2023/03/10 07:02:00;;;;;;;0.30;0.30;;;;;;;;;;7401062;19;20602;-86
2023/03/10 07:04:26;;;;;;;0.30;0.30;;;;;;;;;;7398542;19;20169;-87
2023/03/10 07:06:53;;;;;;;0.30;0.30;;;;;;;;;;7411071;19;20133;-87
2023/03/10 07:09:20;;;;;;;0.33;0.33;;;;;;;;;;7418532;19;20140;-88
2023/03/10 07:11:46;;;;;;;0.20;0.20;;;;;;;;;;7423549;19;20165;-90
2023/03/10 07:14:13;;;;;;;0.30;0.30;;;;;;;;;;7423114;19;20126;-87
2023/03/10 07:16:39;;;;;;;0.30;0.30;;;;;;;;;;7413976;19;20133;-86
2023/03/10 07:19:06;;;;;;;0.23;0.23;;;;;;;;;;7409274;19;20180;-87
2023/03/10 07:21:33;;;;;;;0.33;0.33;;;;;;;;;;7407913;19;20136;-86
2023/03/10 07:23:59;;;;;;;0.30;0.30;;;;;;;;;;7408380;19;20133;-86
2023/03/10 07:26:26;;;;;;;0.30;0.30;;;;;;;;;;7404261;19;20154;-85
2023/03/10 07:28:53;;;;;;;0.20;0.20;;;;;;;;;;7402294;19;20157;-86
2023/03/10 07:31:19;;;;;;;0.30;0.30;;;;;;;;;;7404930;19;20158;-85
2023/03/10 07:33:46;;;;;;;0.30;0.30;;;;;;;;;;7405096;19;20141;-86
2023/03/10 07:36:15;;;;;;;0.20;0.20;;;;;;;;;;7402871;19;20169;-86
2023/03/10 07:38:43;;;;;;;0.30;0.30;;;;;;;;;;7404379;19;20129;-86
2023/03/10 07:41:12;;;;;;;0.30;0.30;;;;;;;;;;7416270;19;20129;-92
2023/03/10 07:43:39;;;;;;;0.40;0.40;;;;;;;;;;7429819;19;20133;-90
2023/03/10 07:46:12;;;;;;;0.30;0.30;;;;;;;;;;7422740;19;20141;-86
2023/03/10 07:48:39;;;;;;;0.30;0.30;;;;;;;;;;7405373;19;20133;-86
2023/03/10 07:51:06;;;;;;;0.30;0.30;;;;;;;;;;7406588;19;20133;-88
2023/03/10 07:53:33;;;;;;;0.20;0.20;;;;;;;;;;7407522;19;20129;-85
2023/03/10 07:56:06;;;;;;;0.57;0.57;;;;;;;;;;7404336;19;20165;-87
2023/03/10 07:58:33;;;;;;;0.30;0.30;;;;;;;;;;7401204;19;20633;-88
2023/03/10 08:01:01;;;;;;;0.20;0.20;;;;;;;;;;7406162;19;20136;-86
2023/03/10 08:03:28;;;;;;;0.30;0.30;;;;;;;;;;7426167;19;20133;-88
2023/03/10 08:05:55;;;;;;;2.13;0.83;;;;;;;;;;7427015;19;20147;-91
2023/03/10 08:08:22;;;;;;;0.20;0.20;;;;;;;;;;7428469;19;20169;-89
2023/03/10 08:10:49;;;;;;;0.30;0.30;;;;;;;;;;7429374;19;20144;-91
2023/03/10 08:13:15;;;;;;;0.27;0.27;;;;;;;;;;7415515;19;20133;-86
2023/03/10 08:15:42;;;;;;;0.30;0.30;;;;;;;;;;7404869;19;20172;-85
2023/03/10 08:18:08;;;;;;;0.20;0.20;;;;;;;;;;7406137;19;20140;-86
2023/03/10 08:20:35;;;;;;;0.30;0.30;;;;;;;;;;7403275;19;20261;-85
2023/03/10 08:23:02;;;;;;;0.30;0.30;;;;;;;;;;7407260;19;20157;-86
2023/03/10 08:25:29;;;;;;;0.30;0.30;;;;;;;;;;7405051;19;20228;-86
2023/03/10 08:27:56;;;;;;;0.30;0.30;;;;;;;;;;7406502;19;20129;-86
2023/03/10 08:30:23;;;;;;;0.30;0.30;;;;;;;;;;7406912;19;20181;-87
2023/03/10 08:32:49;;;;;;;0.30;0.30;;;;;;;;;;7406931;19;20156;-86
2023/03/10 08:35:16;;;;;;;0.27;0.27;;;;;;;;;;7404888;19;20179;-86
2023/03/10 08:37:43;;;;;;;0.30;0.30;;;;;;;;;;7405372;19;20137;-88
2023/03/10 08:40:11;;;;;;;0.30;0.30;;;;;;;;;;7403979;19;20141;-86
2023/03/10 08:42:38;;;;;;;0.40;0.40;;;;;;;;;;7405321;19;20125;-86
2023/03/10 08:45:05;;;;;;;0.23;0.23;;;;;;;;;;7403131;19;20153;-86
2023/03/10 08:47:34;;;;;;;0.30;0.30;;;;;;;;;;7405410;19;20204;-86
2023/03/10 08:50:01;;;;;;;0.20;0.20;;;;;;;;;;7406093;19;20132;-86
2023/03/10 08:52:27;;;;;;;0.20;0.20;;;;;;;;;;7405881;19;20411;-86
2023/03/10 10:53:41;;;;;;;0.30;0.30;;;;;;;;;;7399061;19;20846;-88
2023/03/10 10:56:16;;;;;;;0.40;0.37;;;;;;;;;;7395421;19;20548;-89
2023/03/10 10:58:45;;;;;;;0.30;0.30;;;;;;;;;;7397345;19;20136;-91
2023/03/10 11:01:14;;;;;;;0.30;0.30;;;;;;;;;;7396646;19;20592;-88
2023/03/10 11:03:46;;;;;;;0.43;0.43;;;;;;;;;;7393736;19;20605;-90
2023/03/10 11:06:13;;;;;;;0.30;0.30;;;;;;;;;;7395066;19;20168;-90
2023/03/10 11:08:41;;;;;;;0.30;0.30;;;;;;;;;;7397482;19;20153;-90
2023/03/10 11:11:28;;;;;;;0.30;0.30;;;;;;;;;;7396209;19;20617;-91
2023/03/10 11:14:00;;;;;;;0.30;0.30;;;;;;;;;;7396390;19;20548;-89
2023/03/10 11:16:34;;;;;;;0.30;0.30;;;;;;;;;;7394633;19;20164;-91
2023/03/10 11:19:01;;;;;;;0.30;0.30;;;;;;;;;;7396539;19;20124;-89
2023/03/10 11:21:30;;;;;;;0.50;0.50;;;;;;;;;;7395885;19;20485;-89
2023/03/10 11:24:13;;;;;;;0.20;0.20;;;;;;;;;;7395337;19;20506;-91
2023/03/10 11:27:00;;;;;;;0.20;0.20;;;;;;;;;;7393485;19;20145;-91
2023/03/10 11:29:44;;;;;;;0.23;0.23;;;;;;;;;;7395742;19;20141;-89
2023/03/10 11:32:39;;;;;;;0.30;0.30;;;;;;;;;;7397758;19;20125;-91
2023/03/10 11:35:42;;;;;;;0.20;0.20;;;;;;;;;;7395193;19;20152;-91
2023/03/10 11:38:18;;;;;;;0.30;0.30;;;;;;;;;;7402585;19;20141;-91
2023/03/10 11:40:51;;;;;;;0.33;0.33;;;;;;;;;;7425674;19;20125;-95
2023/03/10 11:43:29;;;;;;;0.30;0.30;;;;;;;;;;7430053;19;20141;-94
2023/03/10 11:45:58;;;;;;;0.30;0.30;;;;;;;;;;7428872;19;20140;-93
2023/03/10 11:48:43;;;;;;;0.30;0.30;;;;;;;;;;7430164;19;20125;-94
2023/03/10 11:51:21;;;;;;;0.30;0.30;;;;;;;;;;7428203;19;20156;-93
2023/03/10 11:53:50;;;;;;;0.30;0.30;;;;;;;;;;7429753;19;20133;-94
2023/03/10 11:56:20;;;;;;;0.30;0.30;;;;;;;;;;7426006;19;20149;-93
2023/03/10 11:58:57;;;;;;;0.30;0.30;;;;;;;;;;7430026;19;20493;-93
2023/03/10 12:01:54;;;;;;;0.20;0.20;;;;;;;;;;7398808;19;20607;-91
2023/03/10 12:04:41;;;;;;;0.33;0.33;;;;;;;;;;7394832;19;20641;-91
2023/03/10 12:07:23;;;;;;;0.30;0.30;;;;;;;;;;7393198;19;20173;-92
2023/03/10 12:09:55;;;;;;;0.30;0.30;;;;;;;;;;7395036;19;20133;-93
2023/03/10 12:12:33;;;;;;;0.30;0.30;;;;;;;;;;7394325;19;20161;-92
2023/03/10 12:15:02;;;;;;;0.30;0.30;;;;;;;;;;7394126;19;20153;-92
2023/03/10 12:17:29;;;;;;;0.30;0.30;;;;;;;;;;7394983;19;20505;-92
2023/03/10 12:20:26;;;;;;;0.30;0.30;;;;;;;;;;7394829;19;20141;-92
2023/03/10 12:22:58;;;;;;;0.20;0.20;;;;;;;;;;7394284;19;20133;-91
2023/03/10 12:25:34;;;;;;;0.20;0.20;;;;;;;;;;7394465;19;20637;-92
2023/03/10 12:28:16;;;;;;;0.30;0.30;;;;;;;;;;7395126;19;20157;-90
2023/03/10 12:31:02;;;;;;;0.20;0.20;;;;;;;;;;7399931;19;20159;-90
2023/03/10 12:33:41;;;;;;;0.20;0.20;;;;;;;;;;7404649;19;20162;-90
2023/03/10 12:36:32;;;;;;;0.30;0.30;;;;;;;;;;7413644;19;20165;-92
2023/03/10 12:39:08;;;;;;;0.27;0.27;;;;;;;;;;7413602;19;20129;-91
2023/03/10 12:41:42;;;;;;;0.20;0.20;;;;;;;;;;7406733;19;20149;-92
2023/03/10 12:44:21;;;;;;;0.30;0.30;;;;;;;;;;7408896;19;20133;-90
2023/03/10 12:47:06;;;;;;;0.30;0.30;;;;;;;;;;7406230;19;20160;-92
2023/03/10 12:49:47;;;;;;;0.20;0.20;;;;;;;;;;7405762;19;20173;-92
2023/03/10 12:52:46;;;;;;;0.30;0.30;;;;;;;;;;7401184;19;20156;-89
2023/03/10 12:55:14;;;;;;;0.40;0.40;;;;;;;;;;7398841;19;20271;-91
2023/03/10 12:58:07;;;;;;;0.30;0.30;;;;;;;;;;7398714;19;20148;-92
2023/03/10 13:00:40;;;;;;;0.30;0.30;;;;;;;;;;7397414;19;20149;-88
2023/03/10 13:03:09;;;;;;;0.27;0.27;;;;;;;;;;7393394;19;20139;-89
2023/03/10 13:05:39;;;;;;;0.30;0.30;;;;;;;;;;7393276;19;20160;-88
2023/03/10 13:08:25;;;;;;;0.23;0.23;;;;;;;;;;7392768;19;20121;-92
2023/03/10 13:10:53;;;;;;;0.30;0.30;;;;;;;;;;7392599;19;20614;-91
2023/03/10 13:13:20;;;;;;;0.30;0.30;;;;;;;;;;7392214;19;20137;-91
2023/03/10 13:15:58;;;;;;;0.30;0.30;;;;;;;;;;7390610;19;20514;-91
2023/03/10 13:18:25;;;;;;;0.30;0.30;;;;;;;;;;7390968;19;20148;-90
2023/03/10 13:20:52;;;;;;;0.30;0.30;;;;;;;;;;7390993;19;20150;-91
2023/03/10 13:23:28;;;;;;;0.27;0.27;;;;;;;;;;7392283;19;20519;-91
2023/03/10 13:25:57;;;;;;;0.30;0.30;;;;;;;;;;7390056;19;20195;-92
2023/03/10 13:28:27;;;;;;;0.30;0.30;;;;;;;;;;7391196;19;20137;-90
2023/03/10 13:31:17;;;;;;;0.20;0.20;;;;;;;;;;7391207;19;20157;-89
2023/03/10 13:33:47;;;;;;;0.30;0.30;;;;;;;;;;7390974;19;20536;-88
2023/03/10 13:36:31;;;;;;;0.30;0.30;;;;;;;;;;7390486;19;20153;-89
2023/03/10 13:39:00;;;;;;;0.30;0.30;;;;;;;;;;7391280;19;20133;-90
2023/03/10 13:41:27;;;;;;;0.30;0.30;;;;;;;;;;7390150;19;20129;-91
2023/03/10 13:43:54;;;;;;;0.37;0.37;;;;;;;;;;7391295;19;20601;-91
2023/03/10 13:46:26;;;;;;;0.30;0.30;;;;;;;;;;7389993;19;20633;-92
2023/03/10 13:48:54;;;;;;;0.30;0.30;;;;;;;;;;7391812;19;20133;-91
2023/03/10 13:51:23;;;;;;;0.30;0.30;;;;;;;;;;7391494;19;20152;-92
2023/03/10 13:53:52;;;;;;;0.27;0.27;;;;;;;;;;7391387;19;20161;-92
2023/03/10 13:56:25;;;;;;;0.30;0.30;;;;;;;;;;7390812;19;20255;-92
2023/03/10 13:58:54;;;;;;;0.20;0.20;;;;;;;;;;7391555;19;20129;-91
2023/03/10 14:01:32;;;;;;;0.20;0.20;;;;;;;;;;7389573;19;20153;-92
2023/03/10 14:04:03;;;;;;;0.30;0.30;;;;;;;;;;7391615;19;20117;-91
2023/03/10 14:06:30;;;;;;;0.30;0.30;;;;;;;;;;7390028;19;20157;-90
2023/03/10 14:09:20;;;;;;;0.30;0.30;;;;;;;;;;7390872;19;20466;-89
2023/03/10 14:11:49;;;;;;;0.30;0.30;;;;;;;;;;7391424;19;20128;-90
2023/03/10 14:14:27;;;;;;;0.30;0.30;;;;;;;;;;7390763;19;20125;-90
2023/03/10 14:16:56;;;;;;;0.20;0.20;;;;;;;;;;7389232;19;20160;-91
2023/03/10 14:19:39;;;;;;;0.30;0.30;;;;;;;;;;7387874;19;20125;-92
2023/03/10 14:22:29;;;;;;;0.30;0.30;;;;;;;;;;7389879;19;20160;-91
2023/03/10 14:24:58;;;;;;;0.77;0.77;;;;;;;;;;7389994;19;20133;-90
2023/03/10 14:27:25;;;;;;;0.30;0.30;;;;;;;;;;7391307;19;20132;-93
2023/03/10 14:29:55;;;;;;;0.30;0.30;;;;;;;;;;7390566;19;20526;-92
2023/03/10 14:32:22;;;;;;;0.27;0.27;;;;;;;;;;7391655;19;20141;-91
2023/03/10 14:34:49;;;;;;;0.30;0.30;;;;;;;;;;7389937;19;20279;-92
2023/03/10 14:37:16;;;;;;;0.30;0.30;;;;;;;;;;7390238;19;20133;-92
2023/03/10 14:39:43;;;;;;;0.87;0.87;;;;;;;;;;7389820;19;20140;-92
2023/03/10 14:42:17;;;;;;;0.30;0.30;;;;;;;;;;7388319;19;20136;-91
2023/03/10 14:44:44;;;;;;;0.30;0.30;;;;;;;;;;7389328;19;20124;-91
2023/03/10 14:47:11;;;;;;;0.23;0.23;;;;;;;;;;7390207;19;20144;-92
2023/03/10 14:49:38;;;;;;;0.30;0.30;;;;;;;;;;7389041;19;20616;-90
2023/03/10 14:52:10;;;;;;;0.30;0.30;;;;;;;;;;7389360;19;20208;-92
2023/03/10 14:54:37;;;;;;;0.93;0.60;;;;;;;;;;7388588;19;20136;-91
2023/03/10 14:57:03;;;;;;;0.30;0.30;;;;;;;;;;7386850;19;20612;-91
2023/03/10 14:59:30;;;;;;;0.20;0.20;;;;;;;;;;7388120;19;20149;-91
2023/03/10 15:02:09;;;;;;;0.30;0.30;;;;;;;;;;7386469;19;20153;-90
2023/03/10 15:04:35;;;;;;;0.30;0.30;;;;;;;;;;7387227;19;20121;-90
2023/03/10 15:07:02;;;;;;;0.30;0.30;;;;;;;;;;7382606;19;20602;-90
2023/03/10 15:09:28;;;;;;;0.30;0.30;;;;;;;;;;7388335;19;20164;-90
2023/03/10 15:11:55;;;;;;;0.60;0.60;;;;;;;;;;7388703;19;20133;-91
2023/03/10 15:14:22;;;;;;;0.30;0.30;;;;;;;;;;7388029;19;20129;-87
2023/03/10 15:16:49;;;;;;;0.50;0.50;;;;;;;;;;7386186;19;20149;-89
2023/03/10 15:19:21;;;;;;;0.50;0.50;;;;;;;;;;7383843;19;20137;-90
2023/03/10 15:21:48;;;;;;;0.30;0.30;;;;;;;;;;7384077;19;20133;-88
2023/03/10 15:24:14;;;;;;;0.60;0.60;;;;;;;;;;7386216;19;20125;-87
2023/03/10 15:26:41;;;;;;;0.30;0.30;;;;;;;;;;7383120;19;20708;-91
2023/03/10 15:29:12;;;;;;;0.40;0.40;;;;;;;;;;7387398;19;20129;-89
2023/03/10 15:31:39;;;;;;;0.30;0.30;;;;;;;;;;7393331;19;20157;-90
2023/03/10 15:34:06;;;;;;;0.30;0.30;;;;;;;;;;7391997;19;20163;-88
2023/03/10 15:36:33;;;;;;;0.30;0.30;;;;;;;;;;7386132;19;20153;-90
2023/03/10 15:39:00;;;;;;;0.30;0.30;;;;;;;;;;7392644;19;20137;-88
2023/03/10 15:41:26;;;;;;;0.30;0.30;;;;;;;;;;7393940;19;20141;-91
2023/03/10 15:43:55;;;;;;;2.57;1.27;;;;;;;;;;7392841;19;20136;-90
2023/03/10 15:46:26;;;;;;;0.53;0.53;;;;;;;;;;7394166;19;20157;-90
2023/03/10 15:48:53;;;;;;;0.30;0.30;;;;;;;;;;7397638;19;20154;-91
2023/03/10 15:51:21;;;;;;;0.40;0.40;;;;;;;;;;7397232;19;20121;-91
2023/03/10 15:53:47;;;;;;;0.80;0.80;;;;;;;;;;7396411;19;20495;-91
2023/03/10 15:56:14;;;;;;;0.30;0.30;;;;;;;;;;7394442;19;20501;-90
2023/03/10 15:58:41;;;;;;;0.30;0.30;;;;;;;;;;7396031;19;20136;-92
2023/03/10 16:01:17;;;;;;;0.30;0.30;;;;;;;;;;7396751;19;20144;-91
2023/03/10 16:03:52;;;;;;;0.30;0.30;;;;;;;;;;7392636;19;20121;-90
2023/03/10 16:06:23;;;;;;;1.90;1.13;;;;;;;;;;7392813;19;20250;-92
2023/03/10 16:08:50;;;;;;;0.30;0.30;;;;;;;;;;7392665;19;20113;-90
2023/03/10 16:11:18;;;;;;;1.90;1.17;;;;;;;;;;7393108;19;20125;-93
2023/03/10 16:13:48;;;;;;;0.30;0.30;;;;;;;;;;7392681;19;20500;-92
2023/03/10 16:16:19;;;;;;;0.40;0.40;;;;;;;;;;7392170;19;20147;-91
2023/03/10 16:18:46;;;;;;;0.30;0.30;;;;;;;;;;7392377;19;20125;-90
2023/03/10 16:21:13;;;;;;;0.30;0.30;;;;;;;;;;7393167;19;20138;-93
2023/03/10 16:23:43;;;;;;;0.30;0.30;;;;;;;;;;7392614;19;20133;-92
2023/03/10 16:26:16;;;;;;;0.60;0.60;;;;;;;;;;7388581;19;20145;-90
2023/03/10 16:28:45;;;;;;;0.70;0.70;;;;;;;;;;7389736;19;20129;-91
2023/03/10 16:31:14;;;;;;;1.70;1.00;;;;;;;;;;7392881;19;20607;-90
2023/03/10 16:33:41;;;;;;;0.30;0.30;;;;;;;;;;7393681;19;20125;-91
2023/03/10 16:36:12;;;;;;;0.47;0.47;;;;;;;;;;7391725;19;20145;-92
2023/03/10 16:38:38;;;;;;;0.30;0.30;;;;;;;;;;7393093;19;20137;-92
2023/03/10 16:41:06;;;;;;;0.30;0.30;;;;;;;;;;7389082;19;20133;-90
2023/03/10 16:43:33;;;;;;;0.30;0.30;;;;;;;;;;7390190;19;20132;-90
2023/03/10 16:46:11;;;;;;;0.33;0.33;;;;;;;;;;7390940;19;20157;-91
2023/03/10 16:48:41;;;;;;;0.87;0.87;;;;;;;;;;7391915;19;20133;-92
2023/03/10 16:51:24;;;;;;;0.40;0.40;;;;;;;;;;7391096;19;20141;-92
2023/03/10 16:53:53;;;;;;;0.40;0.40;;;;;;;;;;7390939;19;20457;-93
2023/03/10 16:56:20;;;;;;;0.30;0.30;;;;;;;;;;7389631;19;20502;-92
2023/03/10 16:58:47;;;;;;;0.40;0.40;;;;;;;;;;7388288;19;20602;-89
2023/03/10 17:01:16;;;;;;;0.50;0.50;;;;;;;;;;7387469;19;20141;-91
2023/03/10 17:03:43;;;;;;;3.40;1.07;;;;;;;;;;7388042;19;20137;-91
2023/03/10 17:06:12;;;;;;;0.30;0.30;;;;;;;;;;7386344;19;20161;-92
2023/03/10 17:08:40;;;;;;;0.73;0.73;;;;;;;;;;7387771;19;20129;-91
2023/03/10 17:11:16;;;;;;;0.30;0.30;;;;;;;;;;7388969;19;20133;-92
2023/03/10 17:13:46;;;;;;;0.30;0.30;;;;;;;;;;7389491;19;20132;-90
2023/03/10 17:16:14;;;;;;;0.83;0.83;;;;;;;;;;7388723;19;20182;-90
2023/03/10 17:18:41;;;;;;;0.37;0.37;;;;;;;;;;7393195;19;20133;-91
2023/03/10 17:21:13;;;;;;;0.43;0.43;;;;;;;;;;7392350;19;20125;-90
2023/03/10 17:23:40;;;;;;;0.30;0.30;;;;;;;;;;7392394;19;20465;-90
2023/03/10 17:26:08;;;;;;;0.20;0.20;;;;;;;;;;7391236;19;20145;-91
2023/03/10 17:28:35;;;;;;;3.07;1.70;;;;;;;;;;7392239;19;20130;-90
2023/03/10 17:31:13;;;;;;;0.60;0.60;;;;;;;;;;7391140;19;20144;-91
2023/03/10 17:33:40;;;;;;;0.40;0.40;;;;;;;;;;7387440;19;20133;-89
2023/03/10 17:36:11;;;;;;;0.30;0.30;;;;;;;;;;7388529;19;20146;-90
2023/03/10 17:38:38;;;;;;;0.47;0.47;;;;;;;;;;7389547;19;20129;-90
2023/03/10 17:41:06;;;;;;;0.80;0.80;;;;;;;;;;7390385;19;20144;-89
2023/03/10 17:43:33;;;;;;;1.57;1.47;;;;;;;;;;7389114;19;20638;-91
2023/03/10 17:46:03;;;;;;;0.30;0.30;;;;;;;;;;7390066;19;20145;-91
2023/03/10 17:48:30;;;;;;;0.50;0.47;;;;;;;;;;7389607;19;20205;-91
2023/03/10 17:50:58;;;;;;;0.77;0.77;;;;;;;;;;7390522;19;20589;-91
2023/03/10 17:53:25;;;;;;;0.30;0.30;;;;;;;;;;7389776;19;20145;-91
2023/03/10 17:55:52;;;;;;;0.50;0.50;;;;;;;;;;7389000;19;20141;-91
2023/03/10 17:58:25;;;;;;;0.40;0.40;;;;;;;;;;7388120;19;20497;-90
2023/03/10 18:00:52;;;;;;;0.80;0.80;;;;;;;;;;7387075;19;20150;-91
2023/03/10 18:03:19;;;;;;;0.60;0.60;;;;;;;;;;7390788;19;20150;-92
2023/03/10 18:05:46;;;;;;;1.13;1.07;;;;;;;;;;7390340;19;20148;-92
2023/03/10 18:08:13;;;;;;;0.30;0.30;;;;;;;;;;7386074;19;20125;-91
2023/03/10 18:10:39;;;;;;;1.73;0.60;;;;;;;;;;7388574;19;20400;-93
2023/03/10 18:13:08;;;;;;;0.50;0.50;;;;;;;;;;7387283;19;20133;-90
2023/03/10 18:15:36;;;;;;;0.30;0.30;;;;;;;;;;7388676;19;20161;-92
2023/03/10 18:18:03;;;;;;;0.30;0.30;;;;;;;;;;7385504;19;20137;-91
2023/03/10 18:20:31;;;;;;;0.30;0.30;;;;;;;;;;7386424;19;20139;-93
2023/03/10 18:22:58;;;;;;;0.30;0.30;;;;;;;;;;7384891;19;20129;-92
2023/03/10 18:25:24;;;;;;;0.50;0.50;;;;;;;;;;7386918;19;20141;-93
2023/03/10 18:27:51;;;;;;;0.30;0.30;;;;;;;;;;7385827;19;20165;-93
2023/03/10 18:30:19;;;;;;;0.30;0.30;;;;;;;;;;7388876;19;20484;-92
2023/03/10 18:32:45;;;;;;;0.40;0.40;;;;;;;;;;7391336;19;20133;-92
2023/03/10 18:35:12;;;;;;;0.40;0.40;;;;;;;;;;7392511;19;20181;-91
2023/03/10 18:37:38;;;;;;;0.30;0.30;;;;;;;;;;7393562;19;20129;-93
2023/03/10 18:40:07;;;;;;;0.80;0.80;;;;;;;;;;7393424;19;20117;-91
2023/03/10 18:42:34;;;;;;;0.50;0.50;;;;;;;;;;7389346;19;20501;-92
2023/03/10 18:45:00;;;;;;;0.53;0.53;;;;;;;;;;7380007;19;20149;-91
2023/03/10 18:47:27;;;;;;;0.60;0.60;;;;;;;;;;7384321;19;20147;-92
2023/03/10 18:49:53;;;;;;;0.30;0.30;;;;;;;;;;7390139;19;20238;-91
2023/03/10 18:52:20;;;;;;;0.30;0.30;;;;;;;;;;7390330;19;20122;-92
2023/03/10 18:54:47;;;;;;;0.30;0.30;;;;;;;;;;7387793;19;20233;-92
2023/03/10 18:57:14;;;;;;;0.30;0.30;;;;;;;;;;7384900;19;20520;-92
2023/03/10 18:59:41;;;;;;;0.30;0.30;;;;;;;;;;7385210;19;20597;-90
2023/03/10 19:02:14;;;;;;;0.30;0.30;;;;;;;;;;7385940;19;20145;-88
2023/03/10 19:04:42;;;;;;;0.27;0.27;;;;;;;;;;7389898;19;20424;-93
2023/03/10 19:07:09;;;;;;;0.20;0.20;;;;;;;;;;7392139;19;20145;-94
2023/03/10 19:10:36;;;;;;;;;;;;;;;;;;;;;
